sensor_id;sensor_type;location;lat;lon;timestamp;temperature;humidity
19970;DHT22;10146;47.754;9.566;2022-09-13T00:00:54;12.40;99.90
19970;DHT22;10146;47.754;9.566;2022-09-13T00:03:20;12.40;99.90
19970;DHT22;10146;47.754;9.566;2022-09-13T00:05:46;12.50;99.90
19970;DHT22;10146;47.754;9.566;2022-09-13T00:08:13;12.50;99.90
19970;DHT22;10146;47.754;9.566;2022-09-13T00:10:42;12.50;99.90
19970;DHT22;10146;47.754;9.566;2022-09-13T00:13:09;12.40;99.90
19970;DHT22;10146;47.754;9.566;2022-09-13T00:15:36;12.40;99.90
19970;DHT22;10146;47.754;9.566;2022-09-13T00:18:01;12.40;99.90
19970;DHT22;10146;47.754;9.566;2022-09-13T00:20:28;12.40;99.90
19970;DHT22;10146;47.754;9.566;2022-09-13T00:22:53;12.40;99.90
19970;DHT22;10146;47.754;9.566;2022-09-13T00:25:19;12.20;99.90
19970;DHT22;10146;47.754;9.566;2022-09-13T00:27:45;12.20;99.90
19970;DHT22;10146;47.754;9.566;2022-09-13T00:30:11;12.20;99.90
19970;DHT22;10146;47.754;9.566;2022-09-13T00:32:37;12.20;99.90
19970;DHT22;10146;47.754;9.566;2022-09-13T00:35:04;12.20;99.90
19970;DHT22;10146;47.754;9.566;2022-09-13T00:37:31;12.20;99.90
19970;DHT22;10146;47.754;9.566;2022-09-13T00:39:58;12.10;99.90
19970;DHT22;10146;47.754;9.566;2022-09-13T00:42:28;12.20;99.90
19970;DHT22;10146;47.754;9.566;2022-09-13T00:47:51;12.10;99.90
19970;DHT22;10146;47.754;9.566;2022-09-13T00:50:32;12.20;99.90
19970;DHT22;10146;47.754;9.566;2022-09-13T00:55:36;12.20;99.90
19970;DHT22;10146;47.754;9.566;2022-09-13T00:58:13;12.20;99.90
19970;DHT22;10146;47.754;9.566;2022-09-13T01:00:41;12.10;99.90
19970;DHT22;10146;47.754;9.566;2022-09-13T01:03:09;12.20;99.90
19970;DHT22;10146;47.754;9.566;2022-09-13T01:05:45;12.20;99.90
19970;DHT22;10146;47.754;9.566;2022-09-13T01:08:13;12.10;99.90
19970;DHT22;10146;47.754;9.566;2022-09-13T01:10:45;12.10;99.90
19970;DHT22;10146;47.754;9.566;2022-09-13T01:13:18;12.10;99.90
19970;DHT22;10146;47.754;9.566;2022-09-13T01:15:45;12.00;99.90
19970;DHT22;10146;47.754;9.566;2022-09-13T01:18:12;12.00;99.90
19970;DHT22;10146;47.754;9.566;2022-09-13T01:26:13;12.00;99.90
19970;DHT22;10146;47.754;9.566;2022-09-13T01:29:35;12.00;99.90
19970;DHT22;10146;47.754;9.566;2022-09-13T01:32:29;12.00;99.90
19970;DHT22;10146;47.754;9.566;2022-09-13T01:49:07;11.90;99.90
19970;DHT22;10146;47.754;9.566;2022-09-13T01:51:46;11.90;99.90
19970;DHT22;10146;47.754;9.566;2022-09-13T01:57:04;11.80;99.90
19970;DHT22;10146;47.754;9.566;2022-09-13T01:59:53;11.70;99.90
19970;DHT22;10146;47.754;9.566;2022-09-13T02:02:25;11.70;99.90
19970;DHT22;10146;47.754;9.566;2022-09-13T02:05:01;11.70;99.90
19970;DHT22;10146;47.754;9.566;2022-09-13T02:07:39;11.70;99.90
19970;DHT22;10146;47.754;9.566;2022-09-13T02:10:16;11.70;99.90
19970;DHT22;10146;47.754;9.566;2022-09-13T02:12:47;11.70;99.90
19970;DHT22;10146;47.754;9.566;2022-09-13T02:15:36;11.60;99.90
19970;DHT22;10146;47.754;9.566;2022-09-13T02:18:08;11.60;99.90
19970;DHT22;10146;47.754;9.566;2022-09-13T02:20:39;11.60;99.90
19970;DHT22;10146;47.754;9.566;2022-09-13T02:23:22;11.60;99.90
19970;DHT22;10146;47.754;9.566;2022-09-13T02:25:50;11.60;99.90
19970;DHT22;10146;47.754;9.566;2022-09-13T02:28:22;11.60;99.90
19970;DHT22;10146;47.754;9.566;2022-09-13T02:30:52;11.60;99.90
19970;DHT22;10146;47.754;9.566;2022-09-13T02:33:41;11.50;99.90
19970;DHT22;10146;47.754;9.566;2022-09-13T02:36:12;11.50;99.90
19970;DHT22;10146;47.754;9.566;2022-09-13T02:41:18;11.40;99.90
19970;DHT22;10146;47.754;9.566;2022-09-13T02:43:50;11.40;99.90
19970;DHT22;10146;47.754;9.566;2022-09-13T02:46:40;11.40;99.90
19970;DHT22;10146;47.754;9.566;2022-09-13T02:58:18;11.30;99.90
19970;DHT22;10146;47.754;9.566;2022-09-13T03:00:45;11.40;99.90
19970;DHT22;10146;47.754;9.566;2022-09-13T03:03:14;11.30;99.90
19970;DHT22;10146;47.754;9.566;2022-09-13T03:05:41;11.30;99.90
19970;DHT22;10146;47.754;9.566;2022-09-13T03:08:09;11.20;99.90
19970;DHT22;10146;47.754;9.566;2022-09-13T03:10:58;11.20;99.90
19970;DHT22;10146;47.754;9.566;2022-09-13T03:21:59;11.10;99.90
19970;DHT22;10146;47.754;9.566;2022-09-13T03:27:35;11.10;99.90
19970;DHT22;10146;47.754;9.566;2022-09-13T03:30:10;11.10;99.90
19970;DHT22;10146;47.754;9.566;2022-09-13T03:32:42;11.10;99.90
19970;DHT22;10146;47.754;9.566;2022-09-13T03:37:55;11.10;99.90
19970;DHT22;10146;47.754;9.566;2022-09-13T03:40:46;11.10;99.90
19970;DHT22;10146;47.754;9.566;2022-09-13T03:43:21;11.00;99.90
19970;DHT22;10146;47.754;9.566;2022-09-13T03:45:52;11.10;99.90
19970;DHT22;10146;47.754;9.566;2022-09-13T03:48:19;11.10;99.90
19970;DHT22;10146;47.754;9.566;2022-09-13T03:50:46;11.00;99.90
19970;DHT22;10146;47.754;9.566;2022-09-13T03:53:16;11.00;99.90
19970;DHT22;10146;47.754;9.566;2022-09-13T03:55:43;11.00;99.90
19970;DHT22;10146;47.754;9.566;2022-09-13T03:58:13;11.00;99.90
19970;DHT22;10146;47.754;9.566;2022-09-13T04:00:39;11.00;99.90
19970;DHT22;10146;47.754;9.566;2022-09-13T04:03:06;11.00;99.90
19970;DHT22;10146;47.754;9.566;2022-09-13T04:05:32;11.00;99.90
19970;DHT22;10146;47.754;9.566;2022-09-13T04:07:59;11.00;99.90
19970;DHT22;10146;47.754;9.566;2022-09-13T04:10:26;11.00;99.90
19970;DHT22;10146;47.754;9.566;2022-09-13T04:12:53;11.00;99.90
19970;DHT22;10146;47.754;9.566;2022-09-13T04:15:19;10.90;99.90
19970;DHT22;10146;47.754;9.566;2022-09-13T04:17:46;10.90;99.90
19970;DHT22;10146;47.754;9.566;2022-09-13T04:20:12;10.80;99.90
19970;DHT22;10146;47.754;9.566;2022-09-13T04:22:38;10.80;99.90
19970;DHT22;10146;47.754;9.566;2022-09-13T04:25:05;10.80;99.90
19970;DHT22;10146;47.754;9.566;2022-09-13T04:27:31;10.80;99.90
19970;DHT22;10146;47.754;9.566;2022-09-13T04:29:56;10.80;99.90
19970;DHT22;10146;47.754;9.566;2022-09-13T04:32:22;10.80;99.90
19970;DHT22;10146;47.754;9.566;2022-09-13T04:34:47;10.80;99.90
19970;DHT22;10146;47.754;9.566;2022-09-13T04:37:13;10.70;99.90
19970;DHT22;10146;47.754;9.566;2022-09-13T04:39:39;10.70;99.90
19970;DHT22;10146;47.754;9.566;2022-09-13T04:42:04;10.70;99.90
19970;DHT22;10146;47.754;9.566;2022-09-13T04:44:31;10.70;99.90
19970;DHT22;10146;47.754;9.566;2022-09-13T04:46:57;10.70;99.90
19970;DHT22;10146;47.754;9.566;2022-09-13T04:49:24;10.60;99.90
19970;DHT22;10146;47.754;9.566;2022-09-13T04:51:50;10.60;99.90
19970;DHT22;10146;47.754;9.566;2022-09-13T04:54:15;10.60;99.90
19970;DHT22;10146;47.754;9.566;2022-09-13T04:56:42;10.70;99.90
19970;DHT22;10146;47.754;9.566;2022-09-13T04:59:08;10.70;99.90
19970;DHT22;10146;47.754;9.566;2022-09-13T05:01:35;10.70;99.90
19970;DHT22;10146;47.754;9.566;2022-09-13T05:04:02;10.70;99.90
19970;DHT22;10146;47.754;9.566;2022-09-13T05:06:28;10.60;99.90
19970;DHT22;10146;47.754;9.566;2022-09-13T05:08:55;10.70;99.90
19970;DHT22;10146;47.754;9.566;2022-09-13T05:11:25;10.70;99.90
19970;DHT22;10146;47.754;9.566;2022-09-13T05:13:53;10.70;99.90
19970;DHT22;10146;47.754;9.566;2022-09-13T05:16:23;10.70;99.90
19970;DHT22;10146;47.754;9.566;2022-09-13T05:18:50;10.70;99.90
19970;DHT22;10146;47.754;9.566;2022-09-13T05:21:16;10.70;99.90
19970;DHT22;10146;47.754;9.566;2022-09-13T05:23:43;10.70;99.90
19970;DHT22;10146;47.754;9.566;2022-09-13T05:26:09;10.70;99.90
19970;DHT22;10146;47.754;9.566;2022-09-13T05:28:35;10.70;99.90
19970;DHT22;10146;47.754;9.566;2022-09-13T05:31:04;10.70;99.90
19970;DHT22;10146;47.754;9.566;2022-09-13T05:33:33;10.70;99.90
19970;DHT22;10146;47.754;9.566;2022-09-13T05:35:59;10.80;99.90
19970;DHT22;10146;47.754;9.566;2022-09-13T05:38:24;10.90;99.90
19970;DHT22;10146;47.754;9.566;2022-09-13T05:40:55;10.90;99.90
19970;DHT22;10146;47.754;9.566;2022-09-13T05:43:25;11.00;99.90
19970;DHT22;10146;47.754;9.566;2022-09-13T05:45:51;11.00;99.90
19970;DHT22;10146;47.754;9.566;2022-09-13T05:48:16;11.10;99.90
19970;DHT22;10146;47.754;9.566;2022-09-13T05:50:42;11.10;99.90
19970;DHT22;10146;47.754;9.566;2022-09-13T05:53:08;11.20;99.90
19970;DHT22;10146;47.754;9.566;2022-09-13T05:55:33;11.30;99.90
19970;DHT22;10146;47.754;9.566;2022-09-13T05:58:02;11.30;99.90
19970;DHT22;10146;47.754;9.566;2022-09-13T06:00:28;11.40;99.90
19970;DHT22;10146;47.754;9.566;2022-09-13T06:02:55;11.50;99.90
19970;DHT22;10146;47.754;9.566;2022-09-13T06:05:20;11.60;99.90
19970;DHT22;10146;47.754;9.566;2022-09-13T06:07:46;11.70;99.90
19970;DHT22;10146;47.754;9.566;2022-09-13T06:10:12;11.80;99.90
19970;DHT22;10146;47.754;9.566;2022-09-13T06:12:38;11.90;99.90
19970;DHT22;10146;47.754;9.566;2022-09-13T06:15:04;12.00;99.90
19970;DHT22;10146;47.754;9.566;2022-09-13T06:17:30;12.10;99.90
19970;DHT22;10146;47.754;9.566;2022-09-13T06:19:55;12.10;99.90
19970;DHT22;10146;47.754;9.566;2022-09-13T06:22:21;12.10;99.90
19970;DHT22;10146;47.754;9.566;2022-09-13T06:24:47;12.20;99.90
19970;DHT22;10146;47.754;9.566;2022-09-13T06:27:13;12.20;99.90
19970;DHT22;10146;47.754;9.566;2022-09-13T06:29:38;12.20;99.90
19970;DHT22;10146;47.754;9.566;2022-09-13T06:32:04;12.30;99.90
19970;DHT22;10146;47.754;9.566;2022-09-13T06:34:30;12.40;99.90
19970;DHT22;10146;47.754;9.566;2022-09-13T06:36:55;12.50;99.90
19970;DHT22;10146;47.754;9.566;2022-09-13T06:39:21;12.50;99.90
19970;DHT22;10146;47.754;9.566;2022-09-13T06:41:47;12.60;99.90
19970;DHT22;10146;47.754;9.566;2022-09-13T06:44:12;12.70;99.90
19970;DHT22;10146;47.754;9.566;2022-09-13T06:46:38;12.80;99.90
19970;DHT22;10146;47.754;9.566;2022-09-13T06:49:06;12.90;99.90
19970;DHT22;10146;47.754;9.566;2022-09-13T06:51:33;13.00;99.90
19970;DHT22;10146;47.754;9.566;2022-09-13T06:54:00;13.20;99.90
19970;DHT22;10146;47.754;9.566;2022-09-13T06:56:29;13.30;99.90
19970;DHT22;10146;47.754;9.566;2022-09-13T06:58:58;13.40;99.90
19970;DHT22;10146;47.754;9.566;2022-09-13T07:03:53;13.60;99.90
19970;DHT22;10146;47.754;9.566;2022-09-13T07:06:25;13.70;99.90
19970;DHT22;10146;47.754;9.566;2022-09-13T07:08:54;13.80;99.90
19970;DHT22;10146;47.754;9.566;2022-09-13T07:11:21;13.90;99.90
19970;DHT22;10146;47.754;9.566;2022-09-13T07:13:48;14.00;99.90
19970;DHT22;10146;47.754;9.566;2022-09-13T07:16:14;14.10;99.90
19970;DHT22;10146;47.754;9.566;2022-09-13T07:18:40;14.20;99.90
19970;DHT22;10146;47.754;9.566;2022-09-13T07:21:08;14.30;99.90
19970;DHT22;10146;47.754;9.566;2022-09-13T07:23:35;14.40;99.90
19970;DHT22;10146;47.754;9.566;2022-09-13T07:26:02;14.50;99.90
19970;DHT22;10146;47.754;9.566;2022-09-13T07:28:40;14.70;99.90
19970;DHT22;10146;47.754;9.566;2022-09-13T07:31:18;14.80;99.90
19970;DHT22;10146;47.754;9.566;2022-09-13T07:33:46;14.90;99.90
19970;DHT22;10146;47.754;9.566;2022-09-13T07:36:12;15.00;99.90
19970;DHT22;10146;47.754;9.566;2022-09-13T07:38:42;15.10;99.90
19970;DHT22;10146;47.754;9.566;2022-09-13T07:41:19;15.20;99.90
19970;DHT22;10146;47.754;9.566;2022-09-13T07:43:45;15.30;99.90
19970;DHT22;10146;47.754;9.566;2022-09-13T07:46:16;15.40;99.90
19970;DHT22;10146;47.754;9.566;2022-09-13T07:48:44;15.60;99.90
19970;DHT22;10146;47.754;9.566;2022-09-13T07:51:14;15.70;99.90
19970;DHT22;10146;47.754;9.566;2022-09-13T07:53:42;15.70;99.90
19970;DHT22;10146;47.754;9.566;2022-09-13T07:56:08;15.80;99.90
19970;DHT22;10146;47.754;9.566;2022-09-13T07:58:35;16.00;99.90
19970;DHT22;10146;47.754;9.566;2022-09-13T08:01:12;16.10;99.90
19970;DHT22;10146;47.754;9.566;2022-09-13T08:03:38;16.20;99.90
19970;DHT22;10146;47.754;9.566;2022-09-13T08:06:05;16.30;99.90
19970;DHT22;10146;47.754;9.566;2022-09-13T08:08:32;16.40;99.90
19970;DHT22;10146;47.754;9.566;2022-09-13T08:10:59;16.40;99.90
19970;DHT22;10146;47.754;9.566;2022-09-13T08:13:25;16.50;99.90
19970;DHT22;10146;47.754;9.566;2022-09-13T08:15:51;16.60;99.90
19970;DHT22;10146;47.754;9.566;2022-09-13T08:18:18;16.60;99.90
19970;DHT22;10146;47.754;9.566;2022-09-13T08:20:43;16.80;99.90
19970;DHT22;10146;47.754;9.566;2022-09-13T08:23:10;16.90;99.90
19970;DHT22;10146;47.754;9.566;2022-09-13T08:25:37;16.90;99.90
19970;DHT22;10146;47.754;9.566;2022-09-13T08:28:16;17.00;99.90
19970;DHT22;10146;47.754;9.566;2022-09-13T08:30:43;17.10;99.90
19970;DHT22;10146;47.754;9.566;2022-09-13T08:33:10;17.30;99.90
19970;DHT22;10146;47.754;9.566;2022-09-13T08:35:37;17.40;99.90
19970;DHT22;10146;47.754;9.566;2022-09-13T08:38:04;17.40;99.90
19970;DHT22;10146;47.754;9.566;2022-09-13T08:40:37;17.50;99.90
19970;DHT22;10146;47.754;9.566;2022-09-13T08:45:58;17.80;99.90
19970;DHT22;10146;47.754;9.566;2022-09-13T08:48:38;17.80;99.90
19970;DHT22;10146;47.754;9.566;2022-09-13T08:51:06;17.80;99.90
19970;DHT22;10146;47.754;9.566;2022-09-13T08:53:44;17.90;99.90
19970;DHT22;10146;47.754;9.566;2022-09-13T09:02:04;18.20;99.90
19970;DHT22;10146;47.754;9.566;2022-09-13T09:07:20;18.30;99.90
19970;DHT22;10146;47.754;9.566;2022-09-13T09:12:38;18.40;99.90
19970;DHT22;10146;47.754;9.566;2022-09-13T09:15:16;18.70;99.90
19970;DHT22;10146;47.754;9.566;2022-09-13T09:20:39;19.00;99.90
19970;DHT22;10146;47.754;9.566;2022-09-13T09:23:13;19.20;99.90
19970;DHT22;10146;47.754;9.566;2022-09-13T09:25:40;19.30;99.90
19970;DHT22;10146;47.754;9.566;2022-09-13T09:28:16;19.30;99.90
19970;DHT22;10146;47.754;9.566;2022-09-13T09:30:53;19.30;99.90
19970;DHT22;10146;47.754;9.566;2022-09-13T09:36:25;19.60;99.90
19970;DHT22;10146;47.754;9.566;2022-09-13T09:38:53;19.70;99.90
19970;DHT22;10146;47.754;9.566;2022-09-13T09:41:28;19.70;99.90
19970;DHT22;10146;47.754;9.566;2022-09-13T09:46:28;20.00;99.90
19970;DHT22;10146;47.754;9.566;2022-09-13T09:49:14;20.10;99.90
19970;DHT22;10146;47.754;9.566;2022-09-13T09:52:02;20.20;99.90
19970;DHT22;10146;47.754;9.566;2022-09-13T09:54:32;20.40;99.90
19970;DHT22;10146;47.754;9.566;2022-09-13T09:57:00;20.50;99.90
19970;DHT22;10146;47.754;9.566;2022-09-13T09:59:30;20.70;99.90
19970;DHT22;10146;47.754;9.566;2022-09-13T10:02:18;20.80;99.90
19970;DHT22;10146;47.754;9.566;2022-09-13T10:04:56;20.90;99.90
19970;DHT22;10146;47.754;9.566;2022-09-13T10:07:29;20.90;99.90
19970;DHT22;10146;47.754;9.566;2022-09-13T10:10:22;21.00;99.90
19970;DHT22;10146;47.754;9.566;2022-09-13T10:12:54;21.10;99.90
19970;DHT22;10146;47.754;9.566;2022-09-13T10:15:24;21.30;99.90
19970;DHT22;10146;47.754;9.566;2022-09-13T10:18:02;21.50;99.90
19970;DHT22;10146;47.754;9.566;2022-09-13T10:20:28;21.70;99.90
19970;DHT22;10146;47.754;9.566;2022-09-13T10:25:41;21.80;99.90
19970;DHT22;10146;47.754;9.566;2022-09-13T10:28:12;21.90;99.90
19970;DHT22;10146;47.754;9.566;2022-09-13T10:30:56;22.00;99.90
19970;DHT22;10146;47.754;9.566;2022-09-13T10:33:29;22.00;99.90
19970;DHT22;10146;47.754;9.566;2022-09-13T10:35:59;22.10;99.90
19970;DHT22;10146;47.754;9.566;2022-09-13T10:38:31;22.20;99.90
19970;DHT22;10146;47.754;9.566;2022-09-13T10:40:59;22.30;99.90
19970;DHT22;10146;47.754;9.566;2022-09-13T10:43:28;22.50;99.90
19970;DHT22;10146;47.754;9.566;2022-09-13T10:45:57;22.60;99.90
19970;DHT22;10146;47.754;9.566;2022-09-13T10:48:23;22.70;99.90
19970;DHT22;10146;47.754;9.566;2022-09-13T10:54:09;22.90;99.90
19970;DHT22;10146;47.754;9.566;2022-09-13T10:56:40;23.00;99.90
19970;DHT22;10146;47.754;9.566;2022-09-13T11:19:48;23.80;99.90
19970;DHT22;10146;47.754;9.566;2022-09-13T11:22:29;23.90;99.90
19970;DHT22;10146;47.754;9.566;2022-09-13T11:27:54;24.10;99.90
19970;DHT22;10146;47.754;9.566;2022-09-13T11:30:24;24.30;99.90
19970;DHT22;10146;47.754;9.566;2022-09-13T11:35:41;24.40;99.90
19970;DHT22;10146;47.754;9.566;2022-09-13T11:41:52;24.70;99.90
19970;DHT22;10146;47.754;9.566;2022-09-13T11:49:57;25.00;99.90
19970;DHT22;10146;47.754;9.566;2022-09-13T11:55:41;24.90;99.90
19970;DHT22;10146;47.754;9.566;2022-09-13T11:58:31;24.90;99.90
19970;DHT22;10146;47.754;9.566;2022-09-13T12:01:01;24.80;99.90
19970;DHT22;10146;47.754;9.566;2022-09-13T12:03:57;24.80;99.90
19970;DHT22;10146;47.754;9.566;2022-09-13T12:06:53;25.00;99.90
19970;DHT22;10146;47.754;9.566;2022-09-13T12:09:29;25.50;99.90
19970;DHT22;10146;47.754;9.566;2022-09-13T12:12:06;25.80;99.90
19970;DHT22;10146;47.754;9.566;2022-09-13T12:17:39;26.20;99.90
19970;DHT22;10146;47.754;9.566;2022-09-13T12:20:17;26.30;99.90
19970;DHT22;10146;47.754;9.566;2022-09-13T12:22:45;26.50;99.90
19970;DHT22;10146;47.754;9.566;2022-09-13T12:25:22;26.50;99.90
19970;DHT22;10146;47.754;9.566;2022-09-13T12:27:58;26.60;99.90
19970;DHT22;10146;47.754;9.566;2022-09-13T12:30:38;26.70;99.90
19970;DHT22;10146;47.754;9.566;2022-09-13T12:33:07;26.80;99.90
19970;DHT22;10146;47.754;9.566;2022-09-13T12:35:50;26.90;99.90
19970;DHT22;10146;47.754;9.566;2022-09-13T12:41:31;27.10;99.90
19970;DHT22;10146;47.754;9.566;2022-09-13T12:49:24;27.30;97.60
19970;DHT22;10146;47.754;9.566;2022-09-13T12:57:28;28.00;96.10
19970;DHT22;10146;47.754;9.566;2022-09-13T13:00:22;28.20;95.60
19970;DHT22;10146;47.754;9.566;2022-09-13T13:05:36;28.30;93.30
19970;DHT22;10146;47.754;9.566;2022-09-13T13:13:38;27.70;93.70
19970;DHT22;10146;47.754;9.566;2022-09-13T13:18:49;27.50;93.90
19970;DHT22;10146;47.754;9.566;2022-09-13T13:21:37;27.40;95.10
19970;DHT22;10146;47.754;9.566;2022-09-13T13:39:49;27.40;92.50
19970;DHT22;10146;47.754;9.566;2022-09-13T13:42:34;27.50;95.10
19970;DHT22;10146;47.754;9.566;2022-09-13T13:48:07;27.70;92.00
19970;DHT22;10146;47.754;9.566;2022-09-13T13:50:34;27.80;92.50
19970;DHT22;10146;47.754;9.566;2022-09-13T13:53:20;27.90;93.40
19970;DHT22;10146;47.754;9.566;2022-09-13T13:55:48;28.20;91.90
19970;DHT22;10146;47.754;9.566;2022-09-13T13:58:36;28.40;91.00
19970;DHT22;10146;47.754;9.566;2022-09-13T14:01:18;28.60;91.80
19970;DHT22;10146;47.754;9.566;2022-09-13T14:04:30;28.70;89.30
19970;DHT22;10146;47.754;9.566;2022-09-13T14:09:32;28.80;90.70
19970;DHT22;10146;47.754;9.566;2022-09-13T14:12:20;28.80;92.60
19970;DHT22;10146;47.754;9.566;2022-09-13T14:14:55;28.60;90.40
19970;DHT22;10146;47.754;9.566;2022-09-13T14:20:09;28.10;94.70
19970;DHT22;10146;47.754;9.566;2022-09-13T14:22:36;27.90;94.60
19970;DHT22;10146;47.754;9.566;2022-09-13T14:27:48;26.90;99.90
19970;DHT22;10146;47.754;9.566;2022-09-13T14:30:21;26.80;99.90
19970;DHT22;10146;47.754;9.566;2022-09-13T14:32:50;26.60;99.90
19970;DHT22;10146;47.754;9.566;2022-09-13T14:35:29;26.50;99.90
19970;DHT22;10146;47.754;9.566;2022-09-13T14:38:19;26.20;99.90
19970;DHT22;10146;47.754;9.566;2022-09-13T14:40:51;26.00;99.90
19970;DHT22;10146;47.754;9.566;2022-09-13T14:43:22;25.80;99.90
19970;DHT22;10146;47.754;9.566;2022-09-13T14:45:52;25.80;99.90
19970;DHT22;10146;47.754;9.566;2022-09-13T14:51:12;25.80;99.90
19970;DHT22;10146;47.754;9.566;2022-09-13T14:53:38;25.70;99.90
19970;DHT22;10146;47.754;9.566;2022-09-13T14:56:07;25.60;99.90
19970;DHT22;10146;47.754;9.566;2022-09-13T15:01:10;25.70;99.90
19970;DHT22;10146;47.754;9.566;2022-09-13T15:03:41;26.10;99.90
19970;DHT22;10146;47.754;9.566;2022-09-13T15:06:17;26.30;99.90
19970;DHT22;10146;47.754;9.566;2022-09-13T15:08:46;26.50;99.90
19970;DHT22;10146;47.754;9.566;2022-09-13T15:11:27;26.70;99.90
19970;DHT22;10146;47.754;9.566;2022-09-13T15:14:24;26.90;99.90
19970;DHT22;10146;47.754;9.566;2022-09-13T15:16:59;27.20;99.90
19970;DHT22;10146;47.754;9.566;2022-09-13T15:19:42;27.60;99.90
19970;DHT22;10146;47.754;9.566;2022-09-13T15:24:44;28.40;99.90
19970;DHT22;10146;47.754;9.566;2022-09-13T15:27:31;29.30;99.90
19970;DHT22;10146;47.754;9.566;2022-09-13T15:30:23;29.80;98.20
19970;DHT22;10146;47.754;9.566;2022-09-13T15:32:49;29.90;99.90
19970;DHT22;10146;47.754;9.566;2022-09-13T15:35:33;29.60;99.90
19970;DHT22;10146;47.754;9.566;2022-09-13T15:38:06;29.60;99.90
19970;DHT22;10146;47.754;9.566;2022-09-13T15:40:44;29.20;99.90
19970;DHT22;10146;47.754;9.566;2022-09-13T15:43:10;29.00;97.40
19970;DHT22;10146;47.754;9.566;2022-09-13T15:45:35;28.80;99.90
19970;DHT22;10146;47.754;9.566;2022-09-13T15:48:01;28.10;99.90
19970;DHT22;10146;47.754;9.566;2022-09-13T15:50:29;27.70;99.90
19970;DHT22;10146;47.754;9.566;2022-09-13T15:52:56;27.50;99.90
19970;DHT22;10146;47.754;9.566;2022-09-13T15:55:48;27.30;99.90
19970;DHT22;10146;47.754;9.566;2022-09-13T15:58:15;26.80;99.90
19970;DHT22;10146;47.754;9.566;2022-09-13T16:00:40;26.60;99.90
19970;DHT22;10146;47.754;9.566;2022-09-13T16:03:07;26.50;99.90
19970;DHT22;10146;47.754;9.566;2022-09-13T16:05:33;26.30;99.90
19970;DHT22;10146;47.754;9.566;2022-09-13T16:08:00;26.10;99.90
19970;DHT22;10146;47.754;9.566;2022-09-13T16:10:27;25.90;99.90
19970;DHT22;10146;47.754;9.566;2022-09-13T16:12:55;25.80;99.90
19970;DHT22;10146;47.754;9.566;2022-09-13T16:15:21;25.70;99.90
19970;DHT22;10146;47.754;9.566;2022-09-13T16:17:46;25.50;99.90
19970;DHT22;10146;47.754;9.566;2022-09-13T16:20:14;25.40;99.90
19970;DHT22;10146;47.754;9.566;2022-09-13T16:22:40;25.30;99.90
19970;DHT22;10146;47.754;9.566;2022-09-13T16:25:07;25.10;99.90
19970;DHT22;10146;47.754;9.566;2022-09-13T16:27:32;25.00;99.90
19970;DHT22;10146;47.754;9.566;2022-09-13T16:29:58;24.80;99.90
19970;DHT22;10146;47.754;9.566;2022-09-13T16:32:24;24.60;99.90
19970;DHT22;10146;47.754;9.566;2022-09-13T16:34:49;24.60;99.90
19970;DHT22;10146;47.754;9.566;2022-09-13T16:37:17;24.50;99.90
19970;DHT22;10146;47.754;9.566;2022-09-13T16:39:43;24.30;99.90
19970;DHT22;10146;47.754;9.566;2022-09-13T16:42:10;24.00;99.90
19970;DHT22;10146;47.754;9.566;2022-09-13T16:44:36;23.80;99.90
19970;DHT22;10146;47.754;9.566;2022-09-13T16:47:04;23.70;99.90
19970;DHT22;10146;47.754;9.566;2022-09-13T16:49:30;23.50;99.90
19970;DHT22;10146;47.754;9.566;2022-09-13T16:51:55;23.30;99.90
19970;DHT22;10146;47.754;9.566;2022-09-13T16:54:27;23.20;99.90
19970;DHT22;10146;47.754;9.566;2022-09-13T16:56:55;23.10;99.90
19970;DHT22;10146;47.754;9.566;2022-09-13T16:59:22;22.90;99.90
19970;DHT22;10146;47.754;9.566;2022-09-13T17:01:47;22.70;99.90
19970;DHT22;10146;47.754;9.566;2022-09-13T17:04:13;22.50;99.90
19970;DHT22;10146;47.754;9.566;2022-09-13T17:06:38;22.40;99.90
19970;DHT22;10146;47.754;9.566;2022-09-13T17:09:07;22.10;99.90
19970;DHT22;10146;47.754;9.566;2022-09-13T17:11:36;22.10;99.90
19970;DHT22;10146;47.754;9.566;2022-09-13T17:14:05;22.00;99.90
19970;DHT22;10146;47.754;9.566;2022-09-13T17:16:35;21.80;99.90
19970;DHT22;10146;47.754;9.566;2022-09-13T17:19:03;21.70;99.90
19970;DHT22;10146;47.754;9.566;2022-09-13T17:21:30;21.60;99.90
19970;DHT22;10146;47.754;9.566;2022-09-13T17:23:58;21.60;99.90
19970;DHT22;10146;47.754;9.566;2022-09-13T17:26:24;21.50;99.90
19970;DHT22;10146;47.754;9.566;2022-09-13T17:28:50;21.40;99.90
19970;DHT22;10146;47.754;9.566;2022-09-13T17:31:17;21.30;99.90
19970;DHT22;10146;47.754;9.566;2022-09-13T17:33:43;21.40;99.90
19970;DHT22;10146;47.754;9.566;2022-09-13T17:36:11;21.20;99.90
19970;DHT22;10146;47.754;9.566;2022-09-13T17:38:38;21.10;99.90
19970;DHT22;10146;47.754;9.566;2022-09-13T17:41:10;21.10;99.90
19970;DHT22;10146;47.754;9.566;2022-09-13T17:43:37;21.10;99.90
19970;DHT22;10146;47.754;9.566;2022-09-13T17:46:11;20.90;99.90
19970;DHT22;10146;47.754;9.566;2022-09-13T17:48:38;20.80;99.90
19970;DHT22;10146;47.754;9.566;2022-09-13T17:51:15;20.80;99.90
19970;DHT22;10146;47.754;9.566;2022-09-13T17:53:43;20.70;99.90
19970;DHT22;10146;47.754;9.566;2022-09-13T17:56:10;20.70;99.90
19970;DHT22;10146;47.754;9.566;2022-09-13T17:58:36;20.60;99.90
19970;DHT22;10146;47.754;9.566;2022-09-13T18:01:04;20.60;99.90
19970;DHT22;10146;47.754;9.566;2022-09-13T18:03:30;20.60;99.90
19970;DHT22;10146;47.754;9.566;2022-09-13T18:05:57;20.50;99.90
19970;DHT22;10146;47.754;9.566;2022-09-13T18:08:25;20.40;99.90
19970;DHT22;10146;47.754;9.566;2022-09-13T18:10:51;20.40;99.90
19970;DHT22;10146;47.754;9.566;2022-09-13T18:13:17;20.40;99.90
19970;DHT22;10146;47.754;9.566;2022-09-13T18:15:44;20.30;99.90
19970;DHT22;10146;47.754;9.566;2022-09-13T18:18:11;20.20;99.90
19970;DHT22;10146;47.754;9.566;2022-09-13T18:20:37;20.10;99.90
19970;DHT22;10146;47.754;9.566;2022-09-13T18:23:02;20.10;99.90
19970;DHT22;10146;47.754;9.566;2022-09-13T18:25:28;20.10;99.90
19970;DHT22;10146;47.754;9.566;2022-09-13T18:27:53;20.00;99.90
19970;DHT22;10146;47.754;9.566;2022-09-13T18:30:19;19.90;99.90
19970;DHT22;10146;47.754;9.566;2022-09-13T18:32:45;19.80;99.90
19970;DHT22;10146;47.754;9.566;2022-09-13T18:35:10;19.80;99.90
19970;DHT22;10146;47.754;9.566;2022-09-13T18:37:36;19.70;99.90
19970;DHT22;10146;47.754;9.566;2022-09-13T18:40:02;19.70;99.90
19970;DHT22;10146;47.754;9.566;2022-09-13T18:42:30;19.70;99.90
19970;DHT22;10146;47.754;9.566;2022-09-13T18:44:55;19.70;99.90
19970;DHT22;10146;47.754;9.566;2022-09-13T18:47:21;19.70;99.90
19970;DHT22;10146;47.754;9.566;2022-09-13T18:49:47;19.70;99.90
19970;DHT22;10146;47.754;9.566;2022-09-13T18:52:12;19.70;99.90
19970;DHT22;10146;47.754;9.566;2022-09-13T18:54:38;19.60;99.90
19970;DHT22;10146;47.754;9.566;2022-09-13T18:57:04;19.60;99.90